createdAt,value
2019-05-02T00:00:50.324Z,5.20
2019-05-02T00:03:16.047Z,5.30
2019-05-02T00:05:41.670Z,5.60
2019-05-02T00:08:07.575Z,5.50
2019-05-02T00:10:33.803Z,5.40
2019-05-02T00:12:59.450Z,4.97
2019-05-02T00:15:25.215Z,4.60
2019-05-02T00:17:50.739Z,5.47
2019-05-02T00:20:16.333Z,6.00
2019-05-02T00:22:41.905Z,6.00
2019-05-02T00:25:11.179Z,5.93
2019-05-02T00:27:37.795Z,6.90
2019-05-02T00:30:04.763Z,5.93
2019-05-02T00:32:31.040Z,6.10
2019-05-02T00:34:56.653Z,7.50
2019-05-02T00:37:24.496Z,6.93
2019-05-02T00:39:50.527Z,7.60
2019-05-02T00:42:17.574Z,7.30
2019-05-02T00:44:47.018Z,7.10
2019-05-02T00:47:13.087Z,8.00
2019-05-02T00:49:38.711Z,9.37
2019-05-02T00:52:04.375Z,8.27
2019-05-02T00:54:30.119Z,10.03
2019-05-02T00:56:55.667Z,9.43
2019-05-02T00:59:21.301Z,9.53
2019-05-02T01:01:54.472Z,9.60
2019-05-02T01:04:23.350Z,11.00
2019-05-02T01:06:50.775Z,11.27
2019-05-02T01:09:16.687Z,11.50
2019-05-02T01:11:42.453Z,12.60
2019-05-02T01:14:08.263Z,11.90
2019-05-02T01:16:33.963Z,13.00
2019-05-02T01:19:00.819Z,13.30
2019-05-02T01:21:26.419Z,13.53
2019-05-02T01:23:51.994Z,13.13
2019-05-02T01:26:17.734Z,14.73
2019-05-02T01:28:49.300Z,14.53
2019-05-02T01:31:18.433Z,15.00
2019-05-02T01:33:46.807Z,14.53
2019-05-02T01:36:14.626Z,14.20
2019-05-02T01:38:44.767Z,15.40
2019-05-02T01:41:10.290Z,16.70
2019-05-02T01:43:35.941Z,15.33
2019-05-02T01:46:01.486Z,16.80
2019-05-02T01:48:27.160Z,16.43
2019-05-02T01:50:52.708Z,16.80
2019-05-02T01:53:18.239Z,15.50
2019-05-02T01:55:43.840Z,15.90
2019-05-02T01:58:09.491Z,18.07
2019-05-02T02:00:35.036Z,16.20
2019-05-02T02:03:04.170Z,16.43
2019-05-02T02:05:32.267Z,14.63
2019-05-02T02:07:57.450Z,14.50
2019-05-02T02:10:23.074Z,16.20
2019-05-02T02:13:03.551Z,16.33
2019-05-02T02:15:16.355Z,16.27
2019-05-02T02:17:41.899Z,17.27
2019-05-02T02:20:13.694Z,18.27
2019-05-02T02:22:41.887Z,17.27
2019-05-02T02:25:26.213Z,18.10
2019-05-02T02:27:54.984Z,17.80
2019-05-02T02:30:24.399Z,17.67
2019-05-02T02:32:47.899Z,18.40
2019-05-02T02:35:13.562Z,18.60
2019-05-02T02:37:39.234Z,18.40
2019-05-02T02:40:04.928Z,19.47
2019-05-02T02:42:31.643Z,18.93
2019-05-02T02:45:00.007Z,19.60
2019-05-02T02:47:25.552Z,20.90
2019-05-02T02:49:55.677Z,19.90
2019-05-02T02:52:18.707Z,20.47
2019-05-02T02:54:45.021Z,21.00
2019-05-02T02:57:20.578Z,20.53
2019-05-02T02:59:38.084Z,21.20
2019-05-02T03:02:09.895Z,20.40
2019-05-02T03:04:31.088Z,23.80
2019-05-02T03:06:56.743Z,23.30
2019-05-02T03:09:26.461Z,22.07
2019-05-02T03:12:07.954Z,22.77
2019-05-02T03:14:41.081Z,23.47
2019-05-02T03:17:02.847Z,22.77
2019-05-02T03:19:28.406Z,22.37
2019-05-02T03:22:00.299Z,21.40
2019-05-02T03:24:21.939Z,22.50
2019-05-02T03:26:48.680Z,23.63
2019-05-02T03:29:14.936Z,25.77
2019-05-02T03:31:40.844Z,24.10
2019-05-02T03:34:06.562Z,24.87
2019-05-02T03:36:36.222Z,24.97
2019-05-02T03:39:06.622Z,24.97
2019-05-02T03:41:30.135Z,25.67
2019-05-02T03:44:10.442Z,25.83
2019-05-02T03:46:24.087Z,25.10
2019-05-02T03:48:49.757Z,24.60
2019-05-02T03:51:21.291Z,25.17
2019-05-02T03:53:42.793Z,26.30
2019-05-02T03:56:11.472Z,25.90
2019-05-02T03:58:36.384Z,26.70
2019-05-02T04:01:03.920Z,28.00
2019-05-02T04:03:34.292Z,25.77
2019-05-02T04:05:57.159Z,25.97
2019-05-02T04:08:22.795Z,26.50
2019-05-02T04:10:52.783Z,25.67
2019-05-02T04:13:17.962Z,28.00
2019-05-02T04:15:44.116Z,25.83
2019-05-02T04:18:15.213Z,24.67
2019-05-02T04:20:37.509Z,24.93
2019-05-02T04:23:04.066Z,24.50
2019-05-02T04:25:33.889Z,25.17
2019-05-02T04:27:59.619Z,26.17
2019-05-02T04:30:25.297Z,24.73
2019-05-02T04:32:55.922Z,24.47
2019-05-02T04:35:18.893Z,26.00
2019-05-02T04:37:44.545Z,26.50
2019-05-02T04:40:12.361Z,26.70
2019-05-02T04:42:39.363Z,33.90
2019-05-02T04:45:20.614Z,24.20
2019-05-02T04:47:32.661Z,24.77
2019-05-02T04:49:58.661Z,25.23
2019-05-02T04:52:24.549Z,24.60
2019-05-02T04:54:50.091Z,24.73
2019-05-02T04:57:18.434Z,24.07
2019-05-02T04:59:43.276Z,22.30
2019-05-02T05:02:09.300Z,21.40
2019-05-02T05:04:41.930Z,22.07
2019-05-02T05:07:02.803Z,21.67
2019-05-02T05:09:28.425Z,21.27
2019-05-02T05:11:58.368Z,22.47
2019-05-02T05:14:22.524Z,22.50
2019-05-02T05:16:51.728Z,24.37
2019-05-02T05:19:17.695Z,23.60
2019-05-02T05:21:43.383Z,22.50
2019-05-02T05:24:10.909Z,22.90
2019-05-02T05:26:43.065Z,22.60
2019-05-02T05:29:08.763Z,22.83
2019-05-02T05:31:34.326Z,23.17
2019-05-02T05:33:59.882Z,22.70
2019-05-02T05:36:32.617Z,20.30
2019-05-02T05:38:52.868Z,22.83
2019-05-02T05:41:22.816Z,21.53
2019-05-02T05:43:49.990Z,21.17
2019-05-02T05:46:13.689Z,22.20
2019-05-02T05:48:41.297Z,22.30
2019-05-02T05:51:07.341Z,21.60
2019-05-02T05:53:33.087Z,22.07
2019-05-02T05:56:02.384Z,23.60
2019-05-02T05:58:28.268Z,21.33
2019-05-02T06:00:55.697Z,21.03
2019-05-02T06:03:21.424Z,21.67
2019-05-02T06:05:47.716Z,22.03
2019-05-02T06:08:18.298Z,21.90
2019-05-02T06:10:43.939Z,22.73
2019-05-02T06:13:11.098Z,20.00
2019-05-02T06:15:38.947Z,21.60
2019-05-02T06:18:04.994Z,21.00
2019-05-02T06:20:31.964Z,19.33
2019-05-02T06:22:59.998Z,19.40
2019-05-02T06:25:36.086Z,19.70
2019-05-02T06:27:55.275Z,18.07
2019-05-02T06:30:21.113Z,18.97
2019-05-02T06:32:50.114Z,19.43
2019-05-02T06:35:17.121Z,19.57
2019-05-02T06:37:50.093Z,20.20
2019-05-02T06:40:14.325Z,18.70
2019-05-02T06:42:40.105Z,17.00
2019-05-02T06:45:06.906Z,18.77
2019-05-02T06:47:35.932Z,17.00
2019-05-02T06:50:01.179Z,16.87
2019-05-02T06:52:32.861Z,17.80
2019-05-02T06:54:57.985Z,17.23
2019-05-02T06:57:26.340Z,17.63
2019-05-02T06:59:54.782Z,18.87
2019-05-02T07:02:20.923Z,18.70
2019-05-02T07:04:47.552Z,19.40
2019-05-02T07:07:13.371Z,17.80
2019-05-02T07:09:41.850Z,18.83
2019-05-02T07:12:09.760Z,19.40
2019-05-02T07:14:35.455Z,19.20
2019-05-02T07:17:05.621Z,19.00
2019-05-02T07:19:38.885Z,19.77
2019-05-02T07:22:04.725Z,38.00
2019-05-02T07:24:31.110Z,52.33
2019-05-02T07:26:58.390Z,19.10
2019-05-02T07:29:42.705Z,19.27
2019-05-02T07:32:09.028Z,18.80
2019-05-02T07:34:34.765Z,19.33
2019-05-02T07:37:00.337Z,19.83
2019-05-02T07:39:26.132Z,19.67
2019-05-02T07:41:51.742Z,20.30
2019-05-02T07:44:18.590Z,18.77
2019-05-02T07:46:51.696Z,17.07
2019-05-02T07:49:12.025Z,17.47
2019-05-02T07:51:37.620Z,18.30
2019-05-02T07:54:03.220Z,18.27
2019-05-02T07:56:28.834Z,18.73
2019-05-02T07:58:54.620Z,20.63
2019-05-02T08:01:22.240Z,20.50
2019-05-02T08:03:47.799Z,21.63
2019-05-02T08:06:13.662Z,23.33
2019-05-02T08:08:39.409Z,22.40
2019-05-02T08:11:05.073Z,21.87
2019-05-02T08:13:31.550Z,22.83
2019-05-02T08:15:57.203Z,23.40
2019-05-02T08:18:25.267Z,22.00
2019-05-02T08:20:51.102Z,24.87
2019-05-02T08:23:20.630Z,23.67
2019-05-02T08:25:46.693Z,24.00
2019-05-02T08:28:16.048Z,23.70
2019-05-02T08:30:42.660Z,24.20
2019-05-02T08:33:08.466Z,24.43
2019-05-02T08:35:34.157Z,30.20
2019-05-02T08:38:00.091Z,23.23
2019-05-02T08:40:25.871Z,23.70
2019-05-02T08:42:51.546Z,26.17
2019-05-02T08:45:17.216Z,24.87
2019-05-02T08:47:42.769Z,20.83
2019-05-02T08:50:09.006Z,22.87
2019-05-02T08:52:36.877Z,22.57
2019-05-02T08:55:04.310Z,21.50
2019-05-02T08:57:34.650Z,22.67
2019-05-02T09:00:00.242Z,22.83
2019-05-02T09:02:40.239Z,20.93
2019-05-02T09:04:58.752Z,20.97
2019-05-02T09:07:23.470Z,21.60
2019-05-02T09:09:49.179Z,20.87
2019-05-02T09:12:15.267Z,22.20
2019-05-02T09:14:42.618Z,22.40
2019-05-02T09:17:13.597Z,21.50
2019-05-02T09:19:35.868Z,21.50
2019-05-02T09:22:02.592Z,20.30
2019-05-02T09:24:28.331Z,21.87
2019-05-02T09:26:53.991Z,21.17
2019-05-02T09:29:19.603Z,19.90
2019-05-02T09:31:46.126Z,21.50
2019-05-02T09:34:11.887Z,19.90
2019-05-02T09:36:38.251Z,19.87
2019-05-02T09:39:05.032Z,18.80
2019-05-02T09:41:32.431Z,19.37
2019-05-02T09:43:58.416Z,19.30
2019-05-02T09:46:24.268Z,19.60
2019-05-02T09:48:51.856Z,20.03
2019-05-02T09:51:17.700Z,19.30
2019-05-02T09:53:43.386Z,20.17
2019-05-02T09:56:09.063Z,19.80
2019-05-02T09:58:34.763Z,20.63
2019-05-02T10:01:11.880Z,19.37
2019-05-02T10:03:37.595Z,21.80
2019-05-02T10:06:03.397Z,21.13
2019-05-02T10:08:29.071Z,20.10
2019-05-02T10:10:54.889Z,18.03
2019-05-02T10:13:22.697Z,19.30
2019-05-02T10:15:47.996Z,18.23
2019-05-02T10:18:14.547Z,17.20
2019-05-02T10:20:41.896Z,17.80
2019-05-02T10:23:12.009Z,18.70
2019-05-02T10:25:43.985Z,19.83
2019-05-02T10:28:03.568Z,20.07
2019-05-02T10:30:33.657Z,20.00
2019-05-02T10:32:58.995Z,22.50
2019-05-02T10:35:37.195Z,19.90
2019-05-02T10:37:56.866Z,20.37
2019-05-02T10:40:22.692Z,19.87
2019-05-02T10:42:48.334Z,22.90
2019-05-02T10:45:16.678Z,20.37
2019-05-02T10:47:42.382Z,21.17
2019-05-02T10:50:11.691Z,18.90
2019-05-02T10:52:39.131Z,20.17
2019-05-02T10:55:05.060Z,19.33
2019-05-02T10:57:32.824Z,18.40
2019-05-02T10:59:58.400Z,19.13
2019-05-02T11:02:26.006Z,19.90
2019-05-02T11:04:54.097Z,18.33
2019-05-02T11:07:22.609Z,19.87
2019-05-02T11:09:47.184Z,20.20
2019-05-02T11:12:16.342Z,21.83
2019-05-02T11:14:51.639Z,19.70
2019-05-02T11:17:22.694Z,20.87
2019-05-02T11:19:52.269Z,20.90
2019-05-02T11:22:17.783Z,19.40
2019-05-02T11:24:43.534Z,20.40
2019-05-02T11:27:09.210Z,19.13
2019-05-02T11:29:34.820Z,19.43
2019-05-02T11:32:02.612Z,19.63
2019-05-02T11:34:28.798Z,18.83
2019-05-02T11:36:54.356Z,19.20
2019-05-02T11:39:27.602Z,20.87
2019-05-02T11:41:47.946Z,18.27
2019-05-02T11:44:13.704Z,18.93
2019-05-02T11:46:42.918Z,20.17
2019-05-02T11:49:06.936Z,20.50
2019-05-02T11:51:32.693Z,18.37
2019-05-02T11:53:59.340Z,20.27
2019-05-02T11:56:25.965Z,18.20
2019-05-02T11:58:52.788Z,18.13
2019-05-02T12:01:19.313Z,17.60
2019-05-02T12:03:48.014Z,18.20
2019-05-02T12:06:19.124Z,17.50
2019-05-02T12:08:45.012Z,17.37
2019-05-02T12:11:16.182Z,18.33
2019-05-02T12:13:36.657Z,16.57
2019-05-02T12:16:03.141Z,17.27
2019-05-02T12:18:28.753Z,15.73
2019-05-02T12:20:54.457Z,17.43
2019-05-02T12:23:20.082Z,17.70
2019-05-02T12:25:45.776Z,17.23
2019-05-02T12:28:12.210Z,17.80
2019-05-02T12:30:37.949Z,18.07
2019-05-02T12:33:04.279Z,18.53
2019-05-02T12:35:29.854Z,16.77
2019-05-02T12:37:55.481Z,17.90
2019-05-02T12:40:21.783Z,18.20
2019-05-02T12:42:49.482Z,18.97
2019-05-02T12:45:15.392Z,20.70
2019-05-02T12:47:42.789Z,21.37
2019-05-02T12:50:08.800Z,19.90
2019-05-02T12:52:34.387Z,19.37
2019-05-02T12:55:02.120Z,21.40
2019-05-02T12:57:27.877Z,18.20
2019-05-02T12:59:53.620Z,18.67
2019-05-02T13:02:26.748Z,19.40
2019-05-02T13:04:52.797Z,19.07
2019-05-02T13:07:18.396Z,18.40
2019-05-02T13:09:44.119Z,19.00
2019-05-02T13:12:13.326Z,17.83
2019-05-02T13:14:39.082Z,17.80
2019-05-02T13:17:05.757Z,18.20
2019-05-02T13:19:41.597Z,16.97
2019-05-02T13:22:12.449Z,17.07
2019-05-02T13:24:42.194Z,16.00
2019-05-02T13:27:09.655Z,16.67
2019-05-02T13:29:35.957Z,16.30
2019-05-02T13:32:03.404Z,15.83
2019-05-02T13:34:33.796Z,15.20
2019-05-02T13:37:00.218Z,14.63
2019-05-02T13:39:32.543Z,14.47
2019-05-02T13:41:58.152Z,15.07
2019-05-02T13:44:29.171Z,14.00
2019-05-02T13:46:54.960Z,12.87
2019-05-02T13:49:21.970Z,13.63
2019-05-02T13:51:47.796Z,11.93
2019-05-02T13:54:13.362Z,10.83
2019-05-02T13:56:45.122Z,10.97
2019-05-02T13:59:12.940Z,9.50
2019-05-02T14:01:38.295Z,9.70
2019-05-02T14:04:10.088Z,10.00
2019-05-02T14:06:37.317Z,8.90
2019-05-02T14:09:18.343Z,9.97
2019-05-02T14:11:56.485Z,9.20
2019-05-02T14:14:23.103Z,9.27
2019-05-02T14:16:49.104Z,8.83
2019-05-02T14:19:14.828Z,8.63
2019-05-02T14:21:42.184Z,8.93
2019-05-02T14:24:07.998Z,9.00
2019-05-02T14:26:34.583Z,9.03
2019-05-02T14:29:02.552Z,9.60
2019-05-02T14:31:28.389Z,9.30
2019-05-02T14:34:12.280Z,9.10
2019-05-02T14:36:37.903Z,8.90
2019-05-02T14:39:06.008Z,9.80
2019-05-02T14:41:40.431Z,8.57
2019-05-02T14:44:02.757Z,7.80
2019-05-02T14:46:33.231Z,9.53
2019-05-02T14:48:56.358Z,8.23
2019-05-02T14:51:27.413Z,7.50
2019-05-02T14:53:52.654Z,7.80
2019-05-02T14:56:26.031Z,7.80
2019-05-02T14:58:52.789Z,7.80
2019-05-02T15:01:22.501Z,7.80
2019-05-02T15:03:46.093Z,8.40
2019-05-02T15:06:12.111Z,8.03
2019-05-02T15:08:43.544Z,9.37
2019-05-02T15:11:05.455Z,7.60
2019-05-02T15:13:32.402Z,8.67
2019-05-02T15:15:58.425Z,7.80
2019-05-02T15:18:24.360Z,6.20
2019-05-02T15:20:52.003Z,5.80
2019-05-02T15:23:19.791Z,5.93
2019-05-02T15:25:47.226Z,6.80
2019-05-02T15:28:18.345Z,5.67
2019-05-02T15:30:49.443Z,5.83
2019-05-02T15:33:17.135Z,7.23
2019-05-02T15:36:03.118Z,7.00
2019-05-02T15:38:29.258Z,8.50
2019-05-02T15:40:59.493Z,9.03
2019-05-02T15:43:22.675Z,8.50
2019-05-02T15:45:48.371Z,7.87
2019-05-02T15:48:21.628Z,8.03
2019-05-02T15:50:50.108Z,8.10
2019-05-02T15:53:20.121Z,6.27
2019-05-02T15:55:45.672Z,5.70
2019-05-02T15:58:16.935Z,8.57
2019-05-02T16:00:47.546Z,7.93
2019-05-02T16:03:13.093Z,7.40
2019-05-02T16:05:41.165Z,9.07
2019-05-02T16:08:08.853Z,10.60
2019-05-02T16:10:38.366Z,10.67
2019-05-02T16:13:03.709Z,8.37
2019-05-02T16:15:30.126Z,5.00
2019-05-02T16:17:56.739Z,2.57
2019-05-02T16:20:25.189Z,2.53
2019-05-02T16:22:52.391Z,3.10
2019-05-02T16:25:19.953Z,3.40
2019-05-02T16:27:48.119Z,3.73
2019-05-02T16:30:15.211Z,4.10
2019-05-02T16:32:44.254Z,4.20
2019-05-02T16:35:15.426Z,4.40
2019-05-02T16:37:38.309Z,4.37
2019-05-02T16:40:06.070Z,4.20
2019-05-02T16:42:32.826Z,4.60
2019-05-02T16:44:58.854Z,4.17
2019-05-02T16:47:24.512Z,4.50
2019-05-02T16:49:53.409Z,5.73
2019-05-02T16:52:18.171Z,5.60
2019-05-02T16:54:43.895Z,4.30
2019-05-02T16:57:09.678Z,4.53
2019-05-02T16:59:35.433Z,3.87
2019-05-02T17:02:07.763Z,4.33
2019-05-02T17:04:29.168Z,3.77
2019-05-02T17:06:56.794Z,4.20
2019-05-02T17:09:43.360Z,4.43
2019-05-02T17:12:11.849Z,4.27
2019-05-02T17:14:36.778Z,3.60
2019-05-02T17:17:02.964Z,4.07
2019-05-02T17:19:31.395Z,3.63
2019-05-02T17:21:57.607Z,3.57
2019-05-02T17:24:26.166Z,4.50
2019-05-02T17:26:51.849Z,4.17
2019-05-02T17:29:21.467Z,4.60
2019-05-02T17:31:50.096Z,4.50
2019-05-02T17:34:14.962Z,4.70
2019-05-02T17:36:42.774Z,3.63
2019-05-02T17:39:10.020Z,6.10
2019-05-02T17:41:37.010Z,5.40
2019-05-02T17:44:03.895Z,5.80
2019-05-02T17:46:30.689Z,4.43
2019-05-02T17:48:56.533Z,4.53
2019-05-02T17:51:37.743Z,4.70
2019-05-02T17:54:02.955Z,4.90
2019-05-02T17:56:28.821Z,5.57
2019-05-02T17:58:58.294Z,4.00
2019-05-02T18:01:31.871Z,4.67
2019-05-02T18:03:57.763Z,4.47
2019-05-02T18:06:32.717Z,5.20
2019-05-02T18:08:55.299Z,4.70
2019-05-02T18:11:22.335Z,4.57
2019-05-02T18:13:48.231Z,4.90
2019-05-02T18:16:16.657Z,4.67
2019-05-02T18:18:45.440Z,5.33
2019-05-02T18:21:09.636Z,5.13
2019-05-02T18:23:35.497Z,6.37
2019-05-02T18:26:04.497Z,4.43
2019-05-02T18:28:29.126Z,4.70
2019-05-02T18:30:57.250Z,4.97
2019-05-02T18:33:23.488Z,4.73
2019-05-02T18:35:49.313Z,4.60
2019-05-02T18:38:20.625Z,6.80
2019-05-02T18:40:43.377Z,5.80
2019-05-02T18:43:09.105Z,5.77
2019-05-02T18:45:34.935Z,5.90
2019-05-02T18:48:05.191Z,6.63
2019-05-02T18:50:29.387Z,5.60
2019-05-02T18:52:55.042Z,5.60
2019-05-02T18:55:23.055Z,5.30
2019-05-02T18:57:48.367Z,5.20
2019-05-02T19:00:14.152Z,6.13
2019-05-02T19:02:39.730Z,5.50
2019-05-02T19:05:06.156Z,6.10
2019-05-02T19:07:35.814Z,5.80
2019-05-02T19:10:05.821Z,5.97
2019-05-02T19:12:28.377Z,6.23
2019-05-02T19:14:57.488Z,5.40
2019-05-02T19:17:21.911Z,5.63
2019-05-02T19:19:47.840Z,5.87
2019-05-02T19:22:16.986Z,5.30
2019-05-02T19:24:41.927Z,5.30
2019-05-02T19:27:12.906Z,5.13
2019-05-02T19:29:39.842Z,4.43
2019-05-02T19:32:05.838Z,5.37
2019-05-02T19:34:32.395Z,5.10
2019-05-02T19:37:03.113Z,4.77
2019-05-02T19:39:27.005Z,5.13
2019-05-02T19:41:52.723Z,5.50
2019-05-02T19:44:21.487Z,4.20
2019-05-02T19:46:46.127Z,4.10
2019-05-02T19:49:16.039Z,5.40
2019-05-02T19:51:39.387Z,4.23
2019-05-02T19:54:06.941Z,4.23
2019-05-02T19:56:43.923Z,4.40
2019-05-02T19:59:03.895Z,5.20
2019-05-02T20:01:29.468Z,5.90
2019-05-02T20:03:56.712Z,6.50
2019-05-02T20:06:22.923Z,4.97
2019-05-02T20:08:48.500Z,4.53
2019-05-02T20:11:15.582Z,3.60
2019-05-02T20:13:41.339Z,4.03
2019-05-02T20:16:12.281Z,4.47
2019-05-02T20:18:43.945Z,4.60
2019-05-02T20:21:23.227Z,4.00
2019-05-02T20:23:44.154Z,3.93
2019-05-02T20:26:15.241Z,4.03
2019-05-02T20:28:37.394Z,3.50
2019-05-02T20:31:03.176Z,4.33
2019-05-02T20:33:29.233Z,3.50
2019-05-02T20:35:55.016Z,4.27
2019-05-02T20:38:21.913Z,5.13
2019-05-02T20:40:47.875Z,4.60
2019-05-02T20:43:13.858Z,4.50
2019-05-02T20:45:39.468Z,3.93
2019-05-02T20:48:05.132Z,3.20
2019-05-02T20:50:31.812Z,3.93
2019-05-02T20:53:01.628Z,3.87
2019-05-02T20:55:26.288Z,3.63
2019-05-02T20:57:52.724Z,3.90
2019-05-02T21:00:23.532Z,3.67
2019-05-02T21:02:49.420Z,3.83
2019-05-02T21:05:16.992Z,3.77
2019-05-02T21:07:53.525Z,4.53
2019-05-02T21:10:26.730Z,4.93
2019-05-02T21:12:52.733Z,4.17
2019-05-02T21:15:18.420Z,4.00
2019-05-02T21:17:44.860Z,6.73
2019-05-02T21:20:12.424Z,4.33
2019-05-02T21:22:38.149Z,5.37
2019-05-02T21:25:05.092Z,6.20
2019-05-02T21:27:32.439Z,5.83
2019-05-02T21:30:00.000Z,5.40
2019-05-02T21:32:28.751Z,4.80
2019-05-02T21:34:54.286Z,5.20
2019-05-02T21:37:19.914Z,4.30
2019-05-02T21:39:45.974Z,3.50
2019-05-02T21:42:11.640Z,3.80
2019-05-02T21:44:37.679Z,3.20
2019-05-02T21:47:06.410Z,3.77
2019-05-02T21:49:36.995Z,3.10
2019-05-02T21:52:13.522Z,3.63
2019-05-02T21:54:40.992Z,3.83
2019-05-02T21:57:08.590Z,3.53
2019-05-02T21:59:34.362Z,4.30
2019-05-02T22:02:02.273Z,3.93
2019-05-02T22:04:27.978Z,3.40
2019-05-02T22:06:53.559Z,4.10
2019-05-02T22:09:19.364Z,3.00
2019-05-02T22:11:45.003Z,3.10
2019-05-02T22:14:10.712Z,3.60
2019-05-02T22:16:38.184Z,4.23
2019-05-02T22:19:04.837Z,4.50
2019-05-02T22:21:32.441Z,3.60
2019-05-02T22:24:08.126Z,3.40
2019-05-02T22:26:25.450Z,4.73
2019-05-02T22:28:53.618Z,3.63
2019-05-02T22:31:18.793Z,4.10
2019-05-02T22:33:44.619Z,5.90
2019-05-02T22:36:12.397Z,4.30
2019-05-02T22:38:57.677Z,3.27
2019-05-02T22:41:23.344Z,3.73
2019-05-02T22:43:48.927Z,4.97
2019-05-02T22:46:16.516Z,3.77
2019-05-02T22:48:42.361Z,3.47
2019-05-02T22:51:08.036Z,3.10
2019-05-02T22:53:33.773Z,3.03
2019-05-02T22:55:59.491Z,3.43
2019-05-02T22:58:25.184Z,5.00
2019-05-02T23:00:52.295Z,2.77
2019-05-02T23:03:18.079Z,3.23
2019-05-02T23:05:43.631Z,3.00
2019-05-02T23:08:09.187Z,3.83
2019-05-02T23:10:35.102Z,3.60
2019-05-02T23:13:02.357Z,3.83
2019-05-02T23:15:28.067Z,3.10
2019-05-02T23:17:53.850Z,3.10
2019-05-02T23:20:19.399Z,3.20
2019-05-02T23:22:44.975Z,3.43
2019-05-02T23:25:29.227Z,3.43
2019-05-02T23:27:56.701Z,3.37
2019-05-02T23:30:23.307Z,3.60
2019-05-02T23:32:48.884Z,3.83
2019-05-02T23:35:15.180Z,3.43
2019-05-02T23:37:42.214Z,3.40
2019-05-02T23:40:08.339Z,3.10
2019-05-02T23:42:34.862Z,3.10
2019-05-02T23:45:02.677Z,3.10
2019-05-02T23:47:27.995Z,3.23
2019-05-02T23:49:53.580Z,3.27
2019-05-02T23:52:19.137Z,3.30
2019-05-02T23:54:52.075Z,2.87
2019-05-02T23:57:12.516Z,2.80
2019-05-02T23:59:39.069Z,2.60
